createdAt,value
2022-10-11T00:02:23.768Z,11.46
2022-10-11T00:04:52.566Z,11.44
2022-10-11T00:07:19.933Z,11.41
2022-10-11T00:09:47.254Z,11.39
2022-10-11T00:12:14.727Z,11.37
2022-10-11T00:14:42.185Z,11.33
2022-10-11T00:17:09.738Z,11.31
2022-10-11T00:19:36.884Z,11.30
2022-10-11T00:22:03.962Z,11.31
2022-10-11T00:24:31.290Z,11.30
2022-10-11T00:26:58.467Z,11.29
2022-10-11T00:29:25.536Z,11.27
2022-10-11T00:31:52.828Z,11.25
2022-10-11T00:34:20.207Z,11.22
2022-10-11T00:36:47.461Z,11.20
2022-10-11T00:39:14.715Z,11.16
2022-10-11T00:41:42.733Z,11.12
2022-10-11T00:44:14.775Z,11.08
2022-10-11T00:46:45.729Z,11.04
2022-10-11T00:49:20.033Z,11.00
2022-10-11T00:51:56.582Z,10.95
2022-10-11T00:54:26.255Z,10.90
2022-10-11T00:56:57.522Z,10.86
2022-10-11T00:59:28.520Z,10.83
2022-10-11T01:01:55.993Z,10.79
2022-10-11T01:04:23.908Z,10.75
2022-10-11T01:06:51.152Z,10.73
2022-10-11T01:09:19.744Z,10.69
2022-10-11T01:11:47.855Z,10.67
2022-10-11T01:14:20.989Z,10.65
2022-10-11T01:17:05.738Z,10.64
2022-10-11T01:20:03.902Z,10.62
2022-10-11T01:22:39.852Z,10.60
2022-10-11T01:25:25.644Z,10.59
2022-10-11T01:28:04.058Z,10.57
2022-10-11T01:30:34.067Z,10.56
2022-10-11T01:33:19.419Z,10.56
2022-10-11T01:36:05.318Z,10.54
2022-10-11T01:38:45.224Z,10.53
2022-10-11T01:41:38.444Z,10.51
2022-10-11T01:44:07.549Z,10.49
2022-10-11T01:46:35.070Z,10.48
2022-10-11T01:49:03.552Z,10.46
2022-10-11T01:51:34.819Z,10.44
2022-10-11T01:54:20.597Z,10.40
2022-10-11T01:57:01.539Z,10.35
2022-10-11T01:59:50.484Z,10.33
2022-10-11T02:02:27.650Z,10.31
2022-10-11T02:05:01.248Z,10.32
2022-10-11T02:07:42.506Z,10.35
2022-10-11T02:10:22.058Z,10.41
2022-10-11T02:12:56.775Z,10.48
2022-10-11T02:15:24.245Z,10.55
2022-10-11T02:17:55.945Z,10.63
2022-10-11T02:20:25.715Z,10.70
2022-10-11T02:23:16.381Z,10.76
2022-10-11T02:25:46.018Z,10.82
2022-10-11T02:28:19.347Z,10.86
2022-10-11T02:30:48.397Z,10.90
2022-10-11T02:33:19.517Z,10.94
2022-10-11T02:35:50.109Z,10.98
2022-10-11T02:38:21.934Z,11.03
2022-10-11T02:40:55.885Z,11.09
2022-10-11T02:43:47.796Z,11.13
2022-10-11T02:46:17.656Z,11.18
2022-10-11T02:48:45.159Z,11.20
2022-10-11T02:51:14.404Z,11.22
2022-10-11T02:53:41.595Z,11.26
2022-10-11T02:56:09.110Z,11.28
2022-10-11T02:58:36.250Z,11.31
2022-10-11T03:01:03.453Z,11.33
2022-10-11T03:03:30.617Z,11.36
2022-10-11T03:06:02.124Z,11.37
2022-10-11T03:08:29.904Z,11.36
2022-10-11T03:10:57.279Z,11.34
2022-10-11T03:13:24.538Z,11.32
2022-10-11T03:16:02.898Z,11.31
2022-10-11T03:18:31.042Z,11.29
2022-10-11T03:20:58.267Z,11.28
2022-10-11T03:23:25.608Z,11.26
2022-10-11T03:25:53.173Z,11.22
2022-10-11T03:28:21.118Z,11.20
2022-10-11T03:30:51.723Z,11.17
2022-10-11T03:33:19.619Z,11.14
2022-10-11T03:35:47.915Z,11.11
2022-10-11T03:38:18.355Z,11.09
2022-10-11T03:40:46.120Z,11.05
2022-10-11T03:43:13.468Z,11.02
2022-10-11T03:45:42.661Z,11.00
2022-10-11T03:48:10.526Z,10.98
2022-10-11T03:50:38.610Z,10.98
2022-10-11T03:53:07.515Z,10.97
2022-10-11T03:55:34.758Z,10.97
2022-10-11T03:58:02.217Z,10.96
2022-10-11T04:00:29.448Z,10.96
2022-10-11T04:02:56.805Z,10.94
2022-10-11T04:05:24.171Z,10.92
2022-10-11T04:07:51.617Z,10.89
2022-10-11T04:10:19.088Z,10.87
2022-10-11T04:12:46.727Z,10.86
2022-10-11T04:15:14.024Z,10.85
2022-10-11T04:17:41.637Z,10.85
2022-10-11T04:20:10.053Z,10.85
2022-10-11T04:22:38.693Z,10.84
2022-10-11T04:25:07.746Z,10.84
2022-10-11T04:27:35.055Z,10.83
2022-10-11T04:30:02.269Z,10.82
2022-10-11T04:32:29.480Z,10.80
2022-10-11T04:34:56.604Z,10.79
2022-10-11T04:37:26.204Z,10.78
2022-10-11T04:39:53.368Z,10.76
2022-10-11T04:42:21.748Z,10.73
2022-10-11T04:44:49.011Z,10.71
2022-10-11T04:47:16.248Z,10.68
2022-10-11T04:49:43.508Z,10.65
2022-10-11T04:52:10.745Z,10.62
2022-10-11T04:54:37.909Z,10.57
2022-10-11T04:57:05.368Z,10.53
2022-10-11T04:59:32.828Z,10.51
2022-10-11T05:02:00.241Z,10.49
2022-10-11T05:04:28.247Z,10.47
2022-10-11T05:06:56.094Z,10.45
2022-10-11T05:09:23.569Z,10.43
2022-10-11T05:11:50.692Z,10.42
2022-10-11T05:14:17.952Z,10.40
2022-10-11T05:16:46.232Z,10.39
2022-10-11T05:19:13.446Z,10.39
2022-10-11T05:21:40.666Z,10.38
2022-10-11T05:24:08.226Z,10.40
2022-10-11T05:26:35.759Z,10.40
2022-10-11T05:29:03.035Z,10.42
2022-10-11T05:31:30.774Z,10.44
2022-10-11T05:33:57.924Z,10.48
2022-10-11T05:36:25.198Z,10.50
2022-10-11T05:38:52.430Z,10.54
2022-10-11T05:41:19.905Z,10.56
2022-10-11T05:43:47.667Z,10.60
2022-10-11T05:46:15.533Z,10.63
2022-10-11T05:48:43.291Z,10.66
2022-10-11T05:51:12.479Z,10.68
2022-10-11T05:53:40.448Z,10.71
2022-10-11T05:56:22.255Z,10.75
2022-10-11T05:58:51.278Z,10.79
2022-10-11T06:01:20.746Z,10.83
2022-10-11T06:03:48.568Z,10.87
2022-10-11T06:06:16.485Z,10.91
2022-10-11T06:08:44.323Z,10.96
2022-10-11T06:11:25.099Z,10.99
2022-10-11T06:13:56.268Z,11.03
2022-10-11T06:16:23.614Z,11.06
2022-10-11T06:18:57.893Z,11.10
2022-10-11T06:21:25.411Z,11.13
2022-10-11T06:23:58.275Z,11.16
2022-10-11T06:26:28.073Z,11.19
2022-10-11T06:28:55.411Z,11.22
2022-10-11T06:31:23.098Z,11.26
2022-10-11T06:33:50.227Z,11.30
2022-10-11T06:36:18.018Z,11.34
2022-10-11T06:38:45.591Z,11.38
2022-10-11T06:41:21.520Z,11.41
2022-10-11T06:43:50.421Z,11.42
2022-10-11T06:46:20.047Z,11.42
2022-10-11T06:48:48.923Z,11.43
2022-10-11T06:51:19.116Z,11.45
2022-10-11T06:53:53.546Z,11.44
2022-10-11T06:56:21.000Z,11.43
2022-10-11T06:58:48.353Z,11.43
2022-10-11T07:01:19.342Z,11.44
2022-10-11T07:03:47.045Z,11.42
2022-10-11T07:06:20.256Z,11.39
2022-10-11T07:08:48.119Z,11.34
2022-10-11T07:11:18.657Z,11.30
2022-10-11T07:13:51.742Z,11.25
2022-10-11T07:16:19.916Z,11.20
2022-10-11T07:18:47.797Z,11.20
2022-10-11T07:21:16.477Z,11.22
2022-10-11T07:23:43.723Z,11.26
2022-10-11T07:26:11.575Z,11.32
2022-10-11T07:28:40.890Z,11.38
2022-10-11T07:31:14.999Z,11.43
2022-10-11T07:33:42.576Z,11.49
2022-10-11T07:36:11.124Z,11.53
2022-10-11T07:38:42.495Z,11.58
2022-10-11T07:41:10.558Z,11.62
2022-10-11T07:43:38.748Z,11.67
2022-10-11T07:46:06.516Z,11.72
2022-10-11T07:48:35.639Z,11.78
2022-10-11T07:51:10.109Z,11.85
2022-10-11T07:53:48.323Z,11.91
2022-10-11T07:56:18.052Z,11.93
2022-10-11T07:58:45.594Z,11.93
2022-10-11T08:01:14.980Z,11.92
2022-10-11T08:03:42.238Z,11.95
2022-10-11T08:06:10.732Z,11.99
2022-10-11T08:08:38.795Z,12.05
2022-10-11T08:11:06.556Z,12.09
2022-10-11T08:13:34.435Z,12.11
2022-10-11T08:16:02.613Z,12.14
2022-10-11T08:18:30.065Z,12.16
2022-10-11T08:20:57.303Z,12.18
2022-10-11T08:23:24.553Z,12.19
2022-10-11T08:25:56.919Z,12.25
2022-10-11T08:28:24.456Z,12.33
2022-10-11T08:30:54.046Z,12.39
2022-10-11T08:33:23.394Z,12.39
2022-10-11T08:35:52.600Z,12.38
2022-10-11T08:38:20.573Z,12.37
2022-10-11T08:40:49.654Z,12.37
2022-10-11T08:43:32.267Z,12.37
2022-10-11T08:46:01.495Z,12.35
2022-10-11T08:48:42.267Z,12.35
2022-10-11T08:51:19.100Z,12.37
2022-10-11T08:53:57.419Z,12.40
2022-10-11T08:56:25.097Z,12.46
2022-10-11T08:59:13.010Z,12.50
2022-10-11T09:01:45.317Z,12.55
2022-10-11T09:04:17.766Z,12.64
2022-10-11T09:07:06.015Z,12.69
2022-10-11T09:09:50.788Z,12.72
2022-10-11T09:12:20.995Z,12.76
2022-10-11T09:15:12.951Z,12.85
2022-10-11T09:18:13.152Z,12.93
2022-10-11T09:20:53.618Z,13.04
2022-10-11T09:23:43.618Z,13.12
2022-10-11T09:26:29.796Z,13.16
2022-10-11T09:29:29.294Z,13.17
2022-10-11T09:31:57.576Z,13.18
2022-10-11T09:34:27.583Z,13.20
2022-10-11T09:37:04.357Z,13.21
2022-10-11T09:39:39.970Z,13.21
2022-10-11T09:42:09.430Z,13.22
2022-10-11T09:44:46.517Z,13.23
2022-10-11T09:47:25.834Z,13.27
2022-10-11T09:50:01.696Z,13.28
2022-10-11T09:52:29.057Z,13.29
2022-10-11T09:54:58.673Z,13.34
2022-10-11T09:57:31.215Z,13.40
2022-10-11T10:00:05.664Z,13.44
2022-10-11T10:02:49.880Z,13.51
2022-10-11T10:05:25.970Z,13.60
2022-10-11T10:08:11.659Z,13.66
2022-10-11T10:10:43.098Z,13.69
2022-10-11T10:13:34.002Z,13.71
2022-10-11T10:16:01.841Z,13.73
2022-10-11T10:18:43.749Z,13.75
2022-10-11T10:21:14.786Z,13.79
2022-10-11T10:23:43.064Z,13.81
2022-10-11T10:26:19.443Z,13.83
2022-10-11T10:29:16.912Z,13.86
2022-10-11T10:32:13.531Z,13.93
2022-10-11T10:34:59.023Z,13.96
2022-10-11T10:37:33.045Z,14.00
2022-10-11T10:40:22.611Z,14.03
2022-10-11T10:42:50.786Z,14.05
2022-10-11T10:45:21.750Z,14.05
2022-10-11T10:48:04.746Z,14.04
2022-10-11T10:50:53.416Z,14.03
2022-10-11T10:53:39.372Z,13.98
2022-10-11T10:56:24.677Z,13.94
2022-10-11T10:59:17.209Z,13.93
2022-10-11T11:02:15.868Z,13.93
2022-10-11T11:05:09.247Z,13.95
2022-10-11T11:07:42.856Z,13.96
2022-10-11T11:10:24.146Z,13.96
2022-10-11T11:13:12.073Z,13.96
2022-10-11T11:15:56.536Z,13.95
2022-10-11T11:18:55.512Z,13.95
2022-10-11T11:21:32.032Z,13.94
2022-10-11T11:24:26.075Z,13.96
2022-10-11T11:26:59.754Z,13.98
2022-10-11T11:29:34.316Z,13.99
2022-10-11T11:32:26.245Z,13.97
2022-10-11T11:35:04.957Z,13.94
2022-10-11T11:37:37.229Z,13.93
2022-10-11T11:40:22.591Z,13.95
2022-10-11T11:42:53.967Z,13.98
2022-10-11T11:45:37.893Z,14.01
2022-10-11T11:48:13.527Z,14.05
2022-10-11T11:50:45.307Z,14.10
2022-10-11T11:53:16.417Z,14.16
2022-10-11T11:55:56.850Z,14.19
2022-10-11T11:58:49.959Z,14.23
2022-10-11T12:01:54.662Z,14.25
2022-10-11T12:04:37.915Z,14.27
2022-10-11T12:07:17.301Z,14.29
2022-10-11T12:09:50.864Z,14.31
2022-10-11T12:12:34.405Z,14.34
2022-10-11T12:15:04.717Z,14.38
2022-10-11T12:17:32.656Z,14.41
2022-10-11T12:20:07.221Z,14.43
2022-10-11T12:22:34.445Z,14.45
2022-10-11T12:25:28.843Z,14.47
2022-10-11T12:28:00.895Z,14.45
2022-10-11T12:30:51.218Z,14.42
2022-10-11T12:33:23.178Z,14.39
2022-10-11T12:35:53.277Z,14.39
2022-10-11T12:38:31.181Z,14.38
2022-10-11T12:41:01.019Z,14.39
2022-10-11T12:43:38.496Z,14.39
2022-10-11T12:46:31.543Z,14.39
2022-10-11T12:49:36.793Z,14.41
2022-10-11T12:52:28.318Z,14.43
2022-10-11T12:55:04.177Z,14.44
2022-10-11T12:57:49.838Z,14.44
2022-10-11T13:00:22.639Z,14.44
2022-10-11T13:02:50.499Z,14.45
2022-10-11T13:05:17.854Z,14.46
2022-10-11T13:07:46.639Z,14.45
2022-10-11T13:10:16.677Z,14.44
2022-10-11T13:12:47.164Z,14.42
2022-10-11T13:15:17.967Z,14.40
2022-10-11T13:17:45.476Z,14.39
2022-10-11T13:20:21.921Z,14.37
2022-10-11T13:22:53.987Z,14.35
2022-10-11T13:25:24.220Z,14.33
2022-10-11T13:27:54.140Z,14.33
2022-10-11T13:30:26.860Z,14.32
2022-10-11T13:32:54.797Z,14.33
2022-10-11T13:35:35.654Z,14.32
2022-10-11T13:38:03.738Z,14.31
2022-10-11T13:40:31.482Z,14.32
2022-10-11T13:42:59.054Z,14.33
2022-10-11T13:45:28.454Z,14.34
2022-10-11T13:47:55.897Z,14.33
2022-10-11T13:50:35.057Z,14.32
2022-10-11T13:53:11.918Z,14.29
2022-10-11T13:55:50.430Z,14.26
2022-10-11T13:58:24.413Z,14.25
2022-10-11T14:01:00.559Z,14.26
2022-10-11T14:03:39.441Z,14.24
2022-10-11T14:06:07.525Z,14.21
2022-10-11T14:08:56.364Z,14.18
2022-10-11T14:11:36.258Z,14.14
2022-10-11T14:14:31.514Z,14.11
2022-10-11T14:17:05.114Z,14.09
2022-10-11T14:19:32.467Z,14.10
2022-10-11T14:21:59.610Z,14.11
2022-10-11T14:24:26.763Z,14.11
2022-10-11T14:26:56.243Z,14.11
2022-10-11T14:29:32.754Z,14.12
2022-10-11T14:32:06.895Z,14.13
2022-10-11T14:34:34.934Z,14.14
2022-10-11T14:37:02.410Z,14.15
2022-10-11T14:39:32.300Z,14.14
2022-10-11T14:41:59.877Z,14.13
2022-10-11T14:44:27.430Z,14.13
2022-10-11T14:46:55.213Z,14.12
2022-10-11T14:49:27.936Z,14.11
2022-10-11T14:51:57.438Z,14.10
2022-10-11T14:54:26.153Z,14.09
2022-10-11T14:56:55.750Z,14.06
2022-10-11T14:59:25.621Z,14.04
2022-10-11T15:01:56.051Z,14.02
2022-10-11T15:04:25.734Z,13.99
2022-10-11T15:06:54.384Z,13.96
2022-10-11T15:09:23.385Z,13.92
2022-10-11T15:11:52.993Z,13.87
2022-10-11T15:14:24.304Z,13.81
2022-10-11T15:16:51.826Z,13.77
2022-10-11T15:19:23.872Z,13.71
2022-10-11T15:21:51.825Z,13.65
2022-10-11T15:24:22.929Z,13.60
2022-10-11T15:26:50.910Z,13.55
2022-10-11T15:29:18.525Z,13.49
2022-10-11T15:31:49.768Z,13.44
2022-10-11T15:34:18.137Z,13.38
2022-10-11T15:36:47.626Z,13.32
2022-10-11T15:39:31.741Z,13.26
2022-10-11T15:42:03.187Z,13.19
2022-10-11T15:44:33.345Z,13.12
2022-10-11T15:47:00.620Z,13.06
2022-10-11T15:49:28.250Z,12.98
2022-10-11T15:51:55.806Z,12.92
2022-10-11T15:54:23.033Z,12.85
2022-10-11T15:56:52.067Z,12.77
2022-10-11T15:59:19.308Z,12.70
2022-10-11T16:01:50.822Z,12.64
2022-10-11T16:04:18.317Z,12.56
2022-10-11T16:06:45.699Z,12.50
2022-10-11T16:09:13.846Z,12.43
2022-10-11T16:11:40.985Z,12.36
2022-10-11T16:14:08.761Z,12.30
2022-10-11T16:16:39.090Z,12.22
2022-10-11T16:19:09.319Z,12.15
2022-10-11T16:21:36.476Z,12.09
2022-10-11T16:24:07.695Z,12.01
2022-10-11T16:26:34.950Z,11.93
2022-10-11T16:29:02.316Z,11.84
2022-10-11T16:31:29.576Z,11.78
2022-10-11T16:33:57.318Z,11.71
2022-10-11T16:36:36.752Z,11.64
2022-10-11T16:39:11.621Z,11.56
2022-10-11T16:41:39.359Z,11.48
2022-10-11T16:44:07.117Z,11.39
2022-10-11T16:46:35.098Z,11.31
2022-10-11T16:49:02.545Z,11.22
2022-10-11T16:51:30.007Z,11.14
2022-10-11T16:53:57.365Z,11.05
2022-10-11T16:56:25.525Z,10.98
2022-10-11T16:58:53.651Z,10.89
2022-10-11T17:01:21.387Z,10.82
2022-10-11T17:03:50.156Z,10.76
2022-10-11T17:06:17.812Z,10.69
2022-10-11T17:08:45.276Z,10.64
2022-10-11T17:11:13.136Z,10.58
2022-10-11T17:13:40.389Z,10.53
2022-10-11T17:16:08.707Z,10.47
2022-10-11T17:18:37.244Z,10.43
2022-10-11T17:21:09.316Z,10.37
2022-10-11T17:23:37.298Z,10.32
2022-10-11T17:26:10.948Z,10.26
2022-10-11T17:28:39.540Z,10.20
2022-10-11T17:31:08.555Z,10.14
2022-10-11T17:33:36.960Z,10.08
2022-10-11T17:36:35.135Z,10.04
2022-10-11T17:39:09.192Z,9.99
2022-10-11T17:41:37.700Z,9.94
2022-10-11T17:44:06.296Z,9.90
2022-10-11T17:46:33.974Z,9.86
2022-10-11T17:49:05.113Z,9.84
2022-10-11T17:51:33.597Z,9.84
2022-10-11T17:54:01.548Z,9.82
2022-10-11T17:56:35.026Z,9.80
2022-10-11T17:59:04.749Z,9.77
2022-10-11T18:01:33.716Z,9.71
2022-10-11T18:04:04.578Z,9.66
2022-10-11T18:06:34.900Z,9.58
2022-10-11T18:09:03.805Z,9.47
2022-10-11T18:11:31.999Z,9.37
2022-10-11T18:13:59.735Z,9.27
2022-10-11T18:16:29.970Z,9.19
2022-10-11T18:18:58.133Z,9.10
2022-10-11T18:21:34.298Z,8.98
2022-10-11T18:24:06.001Z,8.82
2022-10-11T18:26:34.238Z,8.66
2022-10-11T18:29:02.515Z,8.49
2022-10-11T18:31:34.486Z,8.33
2022-10-11T18:34:03.475Z,8.21
2022-10-11T18:36:35.056Z,8.16
2022-10-11T18:39:05.653Z,8.13
2022-10-11T18:41:36.128Z,8.11
2022-10-11T18:44:06.280Z,8.09
2022-10-11T18:46:33.956Z,8.08
2022-10-11T18:49:02.895Z,8.07
2022-10-11T18:51:34.010Z,8.04
2022-10-11T18:54:03.574Z,8.03
2022-10-11T18:56:33.013Z,7.99
2022-10-11T18:59:00.777Z,7.97
2022-10-11T19:01:31.168Z,7.94
2022-10-11T19:04:00.107Z,7.91
2022-10-11T19:06:31.036Z,7.87
2022-10-11T19:09:09.639Z,7.83
2022-10-11T19:11:38.001Z,7.79
2022-10-11T19:14:08.778Z,7.77
2022-10-11T19:16:40.525Z,7.74
2022-10-11T19:19:08.493Z,7.70
2022-10-11T19:21:35.931Z,7.67
2022-10-11T19:24:03.397Z,7.64
2022-10-11T19:26:34.156Z,7.59
2022-10-11T19:29:04.905Z,7.51
2022-10-11T19:31:35.694Z,7.43
2022-10-11T19:34:04.274Z,7.37
2022-10-11T19:36:36.412Z,7.30
2022-10-11T19:39:05.578Z,7.23
2022-10-11T19:41:33.193Z,7.17
2022-10-11T19:44:01.116Z,7.12
2022-10-11T19:49:21.676Z,7.01
2022-10-11T19:51:50.179Z,6.97
2022-10-11T19:54:17.726Z,6.92
2022-10-11T19:56:46.055Z,6.88
2022-10-11T19:59:14.277Z,6.85
2022-10-11T20:01:42.096Z,6.83
2022-10-11T20:04:33.237Z,6.83
2022-10-11T20:07:00.809Z,6.80
2022-10-11T20:09:30.258Z,6.79
2022-10-11T20:11:59.519Z,6.78
2022-10-11T20:14:27.989Z,6.78
2022-10-11T20:16:55.557Z,6.76
2022-10-11T20:19:27.871Z,6.75
2022-10-11T20:21:58.052Z,6.73
2022-10-11T20:24:28.160Z,6.71
2022-10-11T20:26:56.832Z,6.68
2022-10-11T20:29:25.749Z,6.66
2022-10-11T20:31:53.816Z,6.62
2022-10-11T20:34:21.156Z,6.56
2022-10-11T20:36:49.379Z,6.51
2022-10-11T20:39:17.402Z,6.48
2022-10-11T20:41:44.853Z,6.46
2022-10-11T20:44:13.839Z,6.44
2022-10-11T20:46:41.234Z,6.41
2022-10-11T20:49:11.121Z,6.39
2022-10-11T20:51:40.538Z,6.37
2022-10-11T20:54:09.318Z,6.34
2022-10-11T20:56:36.976Z,6.32
2022-10-11T20:59:05.662Z,6.29
2022-10-11T21:01:35.950Z,6.28
2022-10-11T21:04:04.381Z,6.26
2022-10-11T21:06:32.946Z,6.25
2022-10-11T21:09:01.269Z,6.23
2022-10-11T21:11:31.643Z,6.23
2022-10-11T21:14:01.779Z,6.22
2022-10-11T21:16:29.645Z,6.21
2022-10-11T21:18:58.826Z,6.18
2022-10-11T21:21:27.996Z,6.13
2022-10-11T21:24:00.726Z,6.05
2022-10-11T21:26:31.567Z,6.00
2022-10-11T21:29:02.188Z,5.97
2022-10-11T21:31:34.075Z,5.95
2022-10-11T21:34:03.567Z,5.91
2022-10-11T21:36:31.035Z,5.90
2022-10-11T21:38:58.791Z,5.89
2022-10-11T21:41:31.590Z,5.90
2022-10-11T21:43:59.603Z,5.91
2022-10-11T21:46:47.980Z,5.91
2022-10-11T21:49:17.367Z,5.90
2022-10-11T21:51:46.208Z,5.89
2022-10-11T21:54:14.029Z,5.89
2022-10-11T21:56:41.586Z,5.88
2022-10-11T21:59:12.291Z,5.87
2022-10-11T22:01:41.311Z,5.85
2022-10-11T22:04:09.436Z,5.84
2022-10-11T22:06:40.352Z,5.82
2022-10-11T22:09:08.729Z,5.82
2022-10-11T22:11:36.656Z,5.81
2022-10-11T22:14:05.556Z,5.81
2022-10-11T22:16:34.551Z,5.79
2022-10-11T22:19:02.350Z,5.76
2022-10-11T22:21:30.268Z,5.75
2022-10-11T22:23:57.928Z,5.75
2022-10-11T22:26:28.383Z,5.74
2022-10-11T22:28:55.871Z,5.72
2022-10-11T22:31:24.197Z,5.68
2022-10-11T22:34:00.246Z,5.63
2022-10-11T22:36:28.846Z,5.57
2022-10-11T22:38:56.313Z,5.53
2022-10-11T22:41:24.078Z,5.49
2022-10-11T22:43:51.634Z,5.47
2022-10-11T22:46:19.196Z,5.44
2022-10-11T22:48:46.432Z,5.41
2022-10-11T22:51:14.745Z,5.38
2022-10-11T22:53:42.175Z,5.36
2022-10-11T22:56:11.035Z,5.35
2022-10-11T22:58:38.526Z,5.34
2022-10-11T23:01:14.905Z,5.34
2022-10-11T23:03:42.795Z,5.32
2022-10-11T23:06:11.338Z,5.31
2022-10-11T23:08:38.868Z,5.31
2022-10-11T23:11:07.429Z,5.29
2022-10-11T23:13:35.255Z,5.28
2022-10-11T23:16:12.947Z,5.27
2022-10-11T23:18:40.204Z,5.22
2022-10-11T23:21:08.122Z,5.14
2022-10-11T23:23:36.147Z,5.08
2022-10-11T23:26:13.003Z,5.05
2022-10-11T23:28:41.037Z,5.00
2022-10-11T23:31:11.047Z,4.97
2022-10-11T23:33:38.551Z,4.95
2022-10-11T23:36:06.618Z,4.94
2022-10-11T23:38:34.004Z,4.94
2022-10-11T23:41:01.513Z,4.93
2022-10-11T23:43:29.070Z,4.91
2022-10-11T23:45:56.649Z,4.88
2022-10-11T23:48:23.987Z,4.86
2022-10-11T23:50:51.239Z,4.85
2022-10-11T23:53:18.699Z,4.83
2022-10-11T23:55:46.064Z,4.80
2022-10-11T23:58:13.536Z,4.78
